RYR2829 EGGD-LGSK
Flight info
| Callsign | RYR2829 |
|---|---|
| Flight time | 3h 35m |
| Altitude | 39000 |
| Route | YORQI DCT NUCHU L607 BIG L15 MOTOX DCT RUCAC DCT LESDO DCT ETINO DCT LASAT DCT DEVDI DCT RIPUS DCT RESIA DCT NIKOL DCT AIOSA DCT PAPIZ DCT DIMIS UL604 YNN UY121 AGH T6 EVIKO |
| Aircraft | B738/M-SDE2E3FGHIRWXY/LB1 |
Departure
| Time | 2026-04-24 09:15 |
|---|---|
| Airport | Bristol Airport (EGGD) |
Arrival
| Time | 2026-04-24 12:51 |
|---|---|
| Airport | Skiathos Island National Airport (LGSK) |
| Time | Latitude | Longitude | Altitude | Speed | Heading |
|---|---|---|---|---|---|
| 2026-04-24 08:25 | 51.38544 | -2.71416 | 621 ft | 0 kts | 356° |
| 2026-04-24 09:05 | 51.38538 | -2.71415 | 612 ft | 4 kts | 356° |
| 2026-04-24 09:05 | 51.38511 | -2.71413 | 612 ft | 4 kts | 356° |
| 2026-04-24 09:05 | 51.38484 | -2.71410 | 619 ft | 4 kts | 356° |
| 2026-04-24 09:06 | 51.38463 | -2.71407 | 622 ft | 4 kts | 333° |
| 2026-04-24 09:06 | 51.38449 | -2.71381 | 628 ft | 4 kts | 271° |
| 2026-04-24 09:06 | 51.38450 | -2.71353 | 628 ft | 0 kts | 266° |
| 2026-04-24 09:10 | 51.38449 | -2.71363 | 621 ft | 2 kts | 266° |
| 2026-04-24 09:10 | 51.38448 | -2.71384 | 612 ft | 2 kts | 266° |
| 2026-04-24 09:10 | 51.38447 | -2.71422 | 612 ft | 5 kts | 266° |
| 2026-04-24 09:10 | 51.38444 | -2.71508 | 614 ft | 12 kts | 266° |
| 2026-04-24 09:11 | 51.38437 | -2.71675 | 617 ft | 18 kts | 266° |
| 2026-04-24 09:11 | 51.38431 | -2.71887 | 605 ft | 19 kts | 269° |
| 2026-04-24 09:11 | 51.38429 | -2.72098 | 604 ft | 19 kts | 266° |
| 2026-04-24 09:11 | 51.38421 | -2.72303 | 608 ft | 18 kts | 266° |
| 2026-04-24 09:12 | 51.38413 | -2.72497 | 611 ft | 17 kts | 266° |
| 2026-04-24 09:12 | 51.38405 | -2.72686 | 617 ft | 17 kts | 266° |
| 2026-04-24 09:12 | 51.38398 | -2.72868 | 605 ft | 16 kts | 266° |
| 2026-04-24 09:12 | 51.38391 | -2.73043 | 603 ft | 15 kts | 267° |
| 2026-04-24 09:13 | 51.38384 | -2.73212 | 609 ft | 15 kts | 263° |
| 2026-04-24 09:13 | 51.38328 | -2.73334 | 615 ft | 14 kts | 199° |
| 2026-04-24 09:13 | 51.38236 | -2.73307 | 624 ft | 12 kts | 143° |
| 2026-04-24 09:13 | 51.38215 | -2.73247 | 626 ft | 6 kts | 96° |
| 2026-04-24 09:14 | 51.38216 | -2.73220 | 626 ft | 0 kts | 82° |
| 2026-04-24 09:14 | 51.38223 | -2.73129 | 629 ft | 35 kts | 84° |
| 2026-04-24 09:15 | 51.38252 | -2.72303 | 635 ft | 113 kts | 86° |
| 2026-04-24 09:15 | 51.38313 | -2.70690 | 735 ft | 166 kts | 86° |
| 2026-04-24 09:15 | 51.38373 | -2.68862 | 1682 ft | 162 kts | 88° |
| 2026-04-24 09:15 | 51.38431 | -2.67077 | 2587 ft | 172 kts | 91° |
| 2026-04-24 09:16 | 51.38463 | -2.65024 | 2960 ft | 197 kts | 90° |
| 2026-04-24 09:16 | 51.38531 | -2.62690 | 3269 ft | 219 kts | 89° |
| 2026-04-24 09:16 | 51.38616 | -2.60189 | 3766 ft | 234 kts | 89° |
| 2026-04-24 09:16 | 51.38725 | -2.57483 | 4245 ft | 249 kts | 83° |
| 2026-04-24 09:17 | 51.39473 | -2.54963 | 5061 ft | 261 kts | 47° |
| 2026-04-24 09:17 | 51.40998 | -2.53313 | 5721 ft | 268 kts | 33° |
| 2026-04-24 09:17 | 51.42640 | -2.51871 | 6002 ft | 270 kts | 32° |
| 2026-04-24 09:17 | 51.44301 | -2.50429 | 5991 ft | 272 kts | 32° |
| 2026-04-24 09:18 | 51.45939 | -2.48956 | 6007 ft | 269 kts | 35° |
| 2026-04-24 09:18 | 51.47528 | -2.47383 | 6005 ft | 268 kts | 36° |
| 2026-04-24 09:18 | 51.49110 | -2.45798 | 6011 ft | 267 kts | 36° |
| 2026-04-24 09:18 | 51.50657 | -2.44161 | 6008 ft | 265 kts | 45° |
| 2026-04-24 09:19 | 51.51680 | -2.41804 | 6030 ft | 256 kts | 74° |
| 2026-04-24 09:19 | 51.51956 | -2.39043 | 6419 ft | 255 kts | 94° |
| 2026-04-24 09:19 | 51.51777 | -2.36182 | 7210 ft | 259 kts | 98° |
| 2026-04-24 09:19 | 51.51532 | -2.33268 | 8055 ft | 261 kts | 99° |
| 2026-04-24 09:20 | 51.51279 | -2.30389 | 8728 ft | 271 kts | 99° |
| 2026-04-24 09:20 | 51.51004 | -2.27251 | 8953 ft | 297 kts | 99° |
| 2026-04-24 09:20 | 51.50709 | -2.23845 | 9163 ft | 321 kts | 99° |
| 2026-04-24 09:20 | 51.50395 | -2.20173 | 9391 ft | 342 kts | 98° |
| 2026-04-24 09:21 | 51.50072 | -2.16334 | 9975 ft | 351 kts | 98° |
| 2026-04-24 09:21 | 51.49745 | -2.12434 | 10681 ft | 354 kts | 98° |
| 2026-04-24 09:21 | 51.49416 | -2.08504 | 11377 ft | 358 kts | 98° |
| 2026-04-24 09:21 | 51.49083 | -2.04521 | 12041 ft | 362 kts | 98° |
| 2026-04-24 09:22 | 51.48745 | -2.00493 | 12676 ft | 367 kts | 98° |
| 2026-04-24 09:22 | 51.48401 | -1.96415 | 13312 ft | 371 kts | 99° |
| 2026-04-24 09:22 | 51.48052 | -1.92288 | 13965 ft | 375 kts | 99° |
| 2026-04-24 09:22 | 51.47697 | -1.88117 | 14539 ft | 380 kts | 99° |
| 2026-04-24 09:23 | 51.47336 | -1.83899 | 15117 ft | 384 kts | 99° |
| 2026-04-24 09:23 | 51.46970 | -1.79637 | 15693 ft | 388 kts | 99° |
| 2026-04-24 09:23 | 51.46599 | -1.75327 | 16267 ft | 391 kts | 100° |
| 2026-04-24 09:23 | 51.46223 | -1.70982 | 16840 ft | 395 kts | 100° |
| 2026-04-24 09:24 | 51.45842 | -1.66597 | 17392 ft | 399 kts | 101° |
| 2026-04-24 09:24 | 51.45455 | -1.62173 | 17944 ft | 403 kts | 101° |
| 2026-04-24 09:24 | 51.45065 | -1.57708 | 18494 ft | 407 kts | 101° |
| 2026-04-24 09:24 | 51.44668 | -1.53191 | 18993 ft | 410 kts | 101° |
| 2026-04-24 09:25 | 51.44264 | -1.48645 | 19460 ft | 414 kts | 101° |
| 2026-04-24 09:25 | 51.43753 | -1.44098 | 19916 ft | 416 kts | 105° |
| 2026-04-24 09:25 | 51.43122 | -1.39553 | 20356 ft | 419 kts | 106° |
| 2026-04-24 09:25 | 51.42453 | -1.34989 | 20804 ft | 422 kts | 106° |
| 2026-04-24 09:26 | 51.41782 | -1.30391 | 21275 ft | 425 kts | 106° |
| 2026-04-24 09:26 | 51.41121 | -1.25759 | 21722 ft | 428 kts | 106° |
| 2026-04-24 09:26 | 51.40686 | -1.22663 | 22014 ft | 431 kts | 106° |
| 2026-04-24 09:26 | 51.40028 | -1.17968 | 22444 ft | 434 kts | 106° |
| 2026-04-24 09:27 | 51.39432 | -1.13216 | 22871 ft | 439 kts | 101° |
| 2026-04-24 09:27 | 51.39115 | -1.08331 | 23285 ft | 443 kts | 98° |
| 2026-04-24 09:27 | 51.38886 | -1.03399 | 23686 ft | 446 kts | 97° |
| 2026-04-24 09:27 | 51.38677 | -0.98429 | 24051 ft | 449 kts | 97° |
| 2026-04-24 09:28 | 51.38460 | -0.93415 | 24328 ft | 452 kts | 97° |
| 2026-04-24 09:28 | 51.38226 | -0.88386 | 24608 ft | 456 kts | 97° |
| 2026-04-24 09:28 | 51.37976 | -0.83299 | 24879 ft | 460 kts | 97° |
| 2026-04-24 09:28 | 51.37712 | -0.78184 | 25153 ft | 463 kts | 97° |
| 2026-04-24 09:29 | 51.37440 | -0.73033 | 25429 ft | 466 kts | 97° |
| 2026-04-24 09:29 | 51.37161 | -0.67855 | 25689 ft | 469 kts | 97° |
| 2026-04-24 09:29 | 51.36877 | -0.62628 | 25953 ft | 473 kts | 97° |
| 2026-04-24 09:29 | 51.36590 | -0.57372 | 26230 ft | 475 kts | 97° |
| 2026-04-24 09:30 | 51.36300 | -0.52116 | 26589 ft | 475 kts | 97° |
| 2026-04-24 09:30 | 51.35909 | -0.45064 | 27097 ft | 476 kts | 97° |
| 2026-04-24 09:30 | 51.35714 | -0.41567 | 27304 ft | 477 kts | 97° |
| 2026-04-24 09:30 | 51.35416 | -0.36270 | 27609 ft | 479 kts | 97° |
| 2026-04-24 09:31 | 51.35115 | -0.30964 | 27954 ft | 480 kts | 97° |
| 2026-04-24 09:31 | 51.34810 | -0.25646 | 28322 ft | 480 kts | 97° |
| 2026-04-24 09:31 | 51.34503 | -0.20317 | 28660 ft | 482 kts | 97° |
| 2026-04-24 09:31 | 51.34192 | -0.14971 | 28988 ft | 483 kts | 97° |
| 2026-04-24 09:32 | 51.33880 | -0.09621 | 29321 ft | 484 kts | 96° |
| 2026-04-24 09:32 | 51.33564 | -0.04264 | 29675 ft | 485 kts | 96° |
| 2026-04-24 09:32 | 51.33208 | 0.01096 | 30025 ft | 484 kts | 100° |
| 2026-04-24 09:32 | 51.32471 | 0.06334 | 30411 ft | 481 kts | 110° |
| 2026-04-24 09:33 | 51.31276 | 0.11323 | 30689 ft | 481 kts | 115° |
| 2026-04-24 09:33 | 51.29984 | 0.16259 | 30923 ft | 483 kts | 115° |
| 2026-04-24 09:33 | 51.28692 | 0.21138 | 31178 ft | 484 kts | 115° |
| 2026-04-24 09:33 | 51.27390 | 0.26083 | 31525 ft | 482 kts | 115° |
| 2026-04-24 09:34 | 51.26106 | 0.31013 | 31910 ft | 480 kts | 114° |
| 2026-04-24 09:34 | 51.24836 | 0.35932 | 32265 ft | 479 kts | 114° |
| 2026-04-24 09:34 | 51.23575 | 0.40838 | 32575 ft | 479 kts | 114° |
| 2026-04-24 09:34 | 51.22309 | 0.45767 | 32858 ft | 479 kts | 114° |
| 2026-04-24 09:35 | 51.21051 | 0.50659 | 33185 ft | 477 kts | 114° |
| 2026-04-24 09:35 | 51.19797 | 0.55525 | 33662 ft | 472 kts | 114° |
| 2026-04-24 09:35 | 51.18545 | 0.60370 | 34007 ft | 471 kts | 114° |
| 2026-04-24 09:35 | 51.17293 | 0.65200 | 34246 ft | 472 kts | 115° |
| 2026-04-24 09:36 | 51.16038 | 0.70031 | 34454 ft | 473 kts | 115° |
| 2026-04-24 09:36 | 51.14784 | 0.74846 | 34711 ft | 471 kts | 115° |
| 2026-04-24 09:36 | 51.13527 | 0.79662 | 35018 ft | 469 kts | 115° |
| 2026-04-24 09:36 | 51.12276 | 0.84451 | 35301 ft | 467 kts | 115° |
| 2026-04-24 09:37 | 51.11030 | 0.89204 | 35535 ft | 467 kts | 115° |
| 2026-04-24 09:37 | 51.09776 | 0.93981 | 35736 ft | 466 kts | 115° |
| 2026-04-24 09:37 | 51.08528 | 0.98732 | 36007 ft | 464 kts | 115° |
| 2026-04-24 09:37 | 51.07286 | 1.03447 | 36325 ft | 461 kts | 115° |
| 2026-04-24 09:38 | 51.06043 | 1.08152 | 36569 ft | 460 kts | 115° |
| 2026-04-24 09:38 | 51.04803 | 1.12842 | 36749 ft | 461 kts | 115° |
| 2026-04-24 09:38 | 51.03563 | 1.17529 | 36932 ft | 461 kts | 115° |
| 2026-04-24 09:38 | 51.02321 | 1.22219 | 37146 ft | 460 kts | 115° |
| 2026-04-24 09:39 | 51.01082 | 1.26890 | 37363 ft | 459 kts | 115° |
| 2026-04-24 09:39 | 50.99837 | 1.31573 | 37338 ft | 462 kts | 116° |
| 2026-04-24 09:39 | 50.97337 | 1.40954 | 37341 ft | 460 kts | 116° |
| 2026-04-24 09:40 | 50.94849 | 1.50228 | 37335 ft | 455 kts | 116° |
| 2026-04-24 09:40 | 50.92348 | 1.59399 | 37350 ft | 451 kts | 116° |
| 2026-04-24 09:41 | 50.89864 | 1.68487 | 37346 ft | 448 kts | 116° |
| 2026-04-24 09:41 | 50.86607 | 1.76845 | 37349 ft | 447 kts | 135° |
| 2026-04-24 09:42 | 50.82186 | 1.83653 | 37339 ft | 449 kts | 140° |
| 2026-04-24 09:42 | 50.77606 | 1.90403 | 37345 ft | 450 kts | 140° |
| 2026-04-24 09:43 | 50.73091 | 1.97116 | 37325 ft | 441 kts | 139° |
| 2026-04-24 09:43 | 50.68655 | 2.03749 | 37339 ft | 439 kts | 139° |
| 2026-04-24 09:44 | 50.64221 | 2.10376 | 37331 ft | 439 kts | 139° |
| 2026-04-24 09:44 | 50.59788 | 2.16985 | 37324 ft | 439 kts | 139° |
| 2026-04-24 09:45 | 50.55349 | 2.23584 | 37326 ft | 439 kts | 139° |
| 2026-04-24 09:45 | 50.50902 | 2.30176 | 37317 ft | 440 kts | 139° |
| 2026-04-24 09:46 | 50.46448 | 2.36761 | 37332 ft | 440 kts | 140° |
| 2026-04-24 09:46 | 50.41994 | 2.43327 | 37319 ft | 439 kts | 140° |
| 2026-04-24 09:47 | 50.37537 | 2.49881 | 37316 ft | 438 kts | 140° |
| 2026-04-24 09:47 | 50.33099 | 2.56389 | 37317 ft | 437 kts | 140° |
| 2026-04-24 09:48 | 50.28661 | 2.62879 | 37311 ft | 435 kts | 140° |
| 2026-04-24 09:48 | 50.24245 | 2.69320 | 37309 ft | 434 kts | 140° |
| 2026-04-24 09:49 | 50.19833 | 2.75739 | 37298 ft | 433 kts | 140° |
| 2026-04-24 09:49 | 50.15440 | 2.82112 | 37301 ft | 431 kts | 140° |
| 2026-04-24 09:50 | 50.11061 | 2.88449 | 37308 ft | 429 kts | 140° |
| 2026-04-24 09:50 | 50.06700 | 2.94744 | 37312 ft | 427 kts | 140° |
| 2026-04-24 09:51 | 50.02348 | 3.01008 | 37320 ft | 426 kts | 140° |
| 2026-04-24 09:51 | 49.98002 | 3.07248 | 37302 ft | 425 kts | 140° |
| 2026-04-24 09:52 | 49.93657 | 3.13472 | 37304 ft | 425 kts | 141° |
| 2026-04-24 09:52 | 49.89310 | 3.19683 | 37303 ft | 424 kts | 140° |
| 2026-04-24 09:53 | 49.84966 | 3.25877 | 37309 ft | 424 kts | 140° |
| 2026-04-24 09:53 | 49.80638 | 3.32099 | 37305 ft | 426 kts | 137° |
| 2026-04-24 09:54 | 49.76852 | 3.39192 | 37299 ft | 429 kts | 131° |
| 2026-04-24 09:54 | 49.73192 | 3.46467 | 37296 ft | 429 kts | 131° |
| 2026-04-24 09:55 | 49.69500 | 3.53727 | 37300 ft | 429 kts | 131° |
| 2026-04-24 09:55 | 49.65810 | 3.60893 | 37283 ft | 429 kts | 131° |
| 2026-04-24 09:56 | 49.62081 | 3.68087 | 37266 ft | 429 kts | 131° |
| 2026-04-24 09:56 | 49.58347 | 3.75266 | 37286 ft | 429 kts | 132° |
| 2026-04-24 09:57 | 49.54613 | 3.82427 | 37286 ft | 429 kts | 132° |
| 2026-04-24 09:57 | 49.50875 | 3.89579 | 37278 ft | 429 kts | 132° |
| 2026-04-24 09:58 | 49.47127 | 3.96727 | 37274 ft | 429 kts | 132° |
| 2026-04-24 09:58 | 49.43383 | 4.03851 | 37276 ft | 428 kts | 131° |
| 2026-04-24 09:59 | 49.39636 | 4.10962 | 37265 ft | 428 kts | 132° |
| 2026-04-24 09:59 | 49.35889 | 4.18053 | 37266 ft | 428 kts | 132° |
| 2026-04-24 10:00 | 49.32139 | 4.25131 | 37271 ft | 427 kts | 132° |
| 2026-04-24 10:00 | 49.28395 | 4.32180 | 37272 ft | 426 kts | 132° |
| 2026-04-24 10:01 | 49.24646 | 4.39218 | 37266 ft | 426 kts | 132° |
| 2026-04-24 10:01 | 49.20900 | 4.46232 | 37263 ft | 426 kts | 131° |
| 2026-04-24 10:02 | 49.17153 | 4.53230 | 37262 ft | 425 kts | 131° |
| 2026-04-24 10:02 | 49.13401 | 4.60218 | 37263 ft | 425 kts | 131° |
| 2026-04-24 10:03 | 49.09650 | 4.67186 | 37257 ft | 425 kts | 132° |
| 2026-04-24 10:03 | 49.05899 | 4.74136 | 37261 ft | 424 kts | 132° |
| 2026-04-24 10:04 | 49.02140 | 4.81083 | 37253 ft | 425 kts | 132° |
| 2026-04-24 10:04 | 48.98380 | 4.88014 | 37249 ft | 425 kts | 132° |
| 2026-04-24 10:05 | 48.94641 | 4.94892 | 37249 ft | 424 kts | 132° |
| 2026-04-24 10:05 | 48.90873 | 5.01804 | 37244 ft | 424 kts | 132° |
| 2026-04-24 10:06 | 48.85592 | 5.12622 | 37246 ft | 427 kts | 126° |
| 2026-04-24 10:07 | 48.82362 | 5.20192 | 37245 ft | 427 kts | 125° |
| 2026-04-24 10:07 | 48.79112 | 5.27750 | 37234 ft | 428 kts | 126° |
| 2026-04-24 10:08 | 48.75831 | 5.35272 | 37241 ft | 428 kts | 126° |
| 2026-04-24 10:08 | 48.72534 | 5.42773 | 37238 ft | 428 kts | 126° |
| 2026-04-24 10:09 | 48.69225 | 5.50273 | 37234 ft | 428 kts | 126° |
| 2026-04-24 10:09 | 48.65907 | 5.57771 | 37234 ft | 428 kts | 126° |
| 2026-04-24 10:10 | 48.62589 | 5.65253 | 37226 ft | 429 kts | 126° |
| 2026-04-24 10:10 | 48.59261 | 5.72735 | 37234 ft | 429 kts | 126° |
| 2026-04-24 10:11 | 48.55932 | 5.80200 | 37238 ft | 429 kts | 126° |
| 2026-04-24 10:11 | 48.52592 | 5.87669 | 37241 ft | 429 kts | 126° |
| 2026-04-24 10:12 | 48.49252 | 5.95116 | 37219 ft | 429 kts | 126° |
| 2026-04-24 10:12 | 48.45907 | 6.02556 | 37212 ft | 429 kts | 126° |
| 2026-04-24 10:13 | 48.42557 | 6.09983 | 37205 ft | 428 kts | 126° |
| 2026-04-24 10:13 | 48.39207 | 6.17394 | 37214 ft | 428 kts | 126° |
| 2026-04-24 10:14 | 48.35854 | 6.24789 | 37221 ft | 428 kts | 126° |
| 2026-04-24 10:14 | 48.33059 | 6.30939 | 37207 ft | 428 kts | 126° |
| 2026-04-24 10:15 | 48.29151 | 6.39515 | 37211 ft | 428 kts | 126° |
| 2026-04-24 10:15 | 48.26328 | 6.45693 | 37209 ft | 428 kts | 126° |
| 2026-04-24 10:16 | 48.22406 | 6.54252 | 37215 ft | 428 kts | 126° |
| 2026-04-24 10:16 | 48.19577 | 6.60414 | 37206 ft | 428 kts | 126° |
| 2026-04-24 10:17 | 48.16218 | 6.67708 | 37206 ft | 428 kts | 126° |
| 2026-04-24 10:17 | 48.12754 | 6.75036 | 37200 ft | 428 kts | 127° |
| 2026-04-24 10:18 | 48.09286 | 6.82211 | 37200 ft | 428 kts | 127° |
| 2026-04-24 10:18 | 48.05795 | 6.89429 | 37206 ft | 428 kts | 127° |
| 2026-04-24 10:19 | 48.02283 | 6.96696 | 37206 ft | 428 kts | 127° |
| 2026-04-24 10:19 | 47.98793 | 7.03906 | 37215 ft | 429 kts | 127° |
| 2026-04-24 10:20 | 47.95298 | 7.11108 | 37211 ft | 429 kts | 127° |
| 2026-04-24 10:20 | 47.91821 | 7.18254 | 37211 ft | 428 kts | 127° |
| 2026-04-24 10:21 | 47.88317 | 7.25435 | 37215 ft | 428 kts | 127° |
| 2026-04-24 10:21 | 47.84810 | 7.32607 | 37213 ft | 428 kts | 127° |
| 2026-04-24 10:22 | 47.81294 | 7.39776 | 37216 ft | 428 kts | 127° |
| 2026-04-24 10:22 | 47.77781 | 7.46924 | 37212 ft | 428 kts | 127° |
| 2026-04-24 10:23 | 47.74260 | 7.54068 | 37222 ft | 428 kts | 127° |
| 2026-04-24 10:23 | 47.70734 | 7.61190 | 37213 ft | 428 kts | 126° |
| 2026-04-24 10:24 | 47.67201 | 7.68302 | 37210 ft | 428 kts | 126° |
| 2026-04-24 10:24 | 47.63660 | 7.75416 | 37214 ft | 428 kts | 126° |
| 2026-04-24 10:25 | 47.60118 | 7.82516 | 37204 ft | 428 kts | 126° |
| 2026-04-24 10:25 | 47.56570 | 7.89611 | 37206 ft | 428 kts | 127° |
| 2026-04-24 10:26 | 47.53020 | 7.96691 | 37207 ft | 428 kts | 127° |
| 2026-04-24 10:26 | 47.49487 | 8.03718 | 37205 ft | 428 kts | 127° |
| 2026-04-24 10:27 | 47.45931 | 8.10774 | 37203 ft | 428 kts | 127° |
| 2026-04-24 10:27 | 47.42376 | 8.17811 | 37201 ft | 428 kts | 127° |
| 2026-04-24 10:28 | 47.38811 | 8.24847 | 37199 ft | 427 kts | 127° |
| 2026-04-24 10:28 | 47.35249 | 8.31862 | 37206 ft | 427 kts | 127° |
| 2026-04-24 10:29 | 47.31684 | 8.38865 | 37197 ft | 427 kts | 126° |
| 2026-04-24 10:29 | 47.28119 | 8.45855 | 37210 ft | 427 kts | 126° |
| 2026-04-24 10:30 | 47.24560 | 8.52849 | 37207 ft | 426 kts | 126° |
| 2026-04-24 10:30 | 47.21073 | 8.59900 | 37210 ft | 426 kts | 125° |
| 2026-04-24 10:31 | 47.17597 | 8.66958 | 37208 ft | 426 kts | 125° |
| 2026-04-24 10:31 | 47.14111 | 8.73999 | 37198 ft | 426 kts | 125° |
| 2026-04-24 10:32 | 47.10612 | 8.81034 | 37189 ft | 427 kts | 125° |
| 2026-04-24 10:32 | 47.07103 | 8.88066 | 37191 ft | 427 kts | 125° |
| 2026-04-24 10:33 | 47.03587 | 8.95094 | 37185 ft | 428 kts | 125° |
| 2026-04-24 10:33 | 47.00063 | 9.02119 | 37192 ft | 428 kts | 125° |
| 2026-04-24 10:34 | 46.96529 | 9.09147 | 37179 ft | 429 kts | 125° |
| 2026-04-24 10:34 | 46.92981 | 9.16185 | 37183 ft | 430 kts | 125° |
| 2026-04-24 10:35 | 46.89432 | 9.23209 | 37171 ft | 429 kts | 125° |
| 2026-04-24 10:35 | 46.85907 | 9.30166 | 37177 ft | 429 kts | 125° |
| 2026-04-24 10:36 | 46.82351 | 9.37167 | 37175 ft | 429 kts | 125° |
| 2026-04-24 10:36 | 46.78789 | 9.44162 | 37178 ft | 429 kts | 125° |
| 2026-04-24 10:37 | 46.75222 | 9.51149 | 37192 ft | 430 kts | 124° |
| 2026-04-24 10:37 | 46.71644 | 9.58141 | 37152 ft | 430 kts | 125° |
| 2026-04-24 10:38 | 46.68065 | 9.65117 | 37187 ft | 430 kts | 125° |
| 2026-04-24 10:38 | 46.64485 | 9.72079 | 37196 ft | 430 kts | 125° |
| 2026-04-24 10:39 | 46.60891 | 9.79048 | 37191 ft | 430 kts | 124° |
| 2026-04-24 10:39 | 46.57291 | 9.86014 | 37193 ft | 431 kts | 125° |
| 2026-04-24 10:40 | 46.53680 | 9.92985 | 37170 ft | 432 kts | 124° |
| 2026-04-24 10:40 | 46.50088 | 9.99901 | 37183 ft | 432 kts | 124° |
| 2026-04-24 10:41 | 46.46437 | 10.06832 | 37190 ft | 432 kts | 127° |
| 2026-04-24 10:41 | 46.42566 | 10.13515 | 37193 ft | 434 kts | 128° |
| 2026-04-24 10:42 | 46.38634 | 10.20143 | 37167 ft | 434 kts | 128° |
| 2026-04-24 10:42 | 46.34723 | 10.26776 | 37165 ft | 433 kts | 128° |
| 2026-04-24 10:43 | 46.30827 | 10.33417 | 37144 ft | 433 kts | 127° |
| 2026-04-24 10:43 | 46.26937 | 10.40051 | 37153 ft | 432 kts | 127° |
| 2026-04-24 10:44 | 46.23054 | 10.46660 | 37167 ft | 431 kts | 127° |
| 2026-04-24 10:44 | 46.19172 | 10.53251 | 37173 ft | 430 kts | 127° |
| 2026-04-24 10:45 | 46.15290 | 10.59826 | 37151 ft | 431 kts | 127° |
| 2026-04-24 10:45 | 46.11398 | 10.66402 | 37139 ft | 432 kts | 127° |
| 2026-04-24 10:46 | 46.07494 | 10.72982 | 37149 ft | 432 kts | 127° |
| 2026-04-24 10:46 | 46.03583 | 10.79559 | 37144 ft | 433 kts | 127° |
| 2026-04-24 10:47 | 45.99660 | 10.86137 | 37127 ft | 434 kts | 127° |
| 2026-04-24 10:47 | 45.95726 | 10.92720 | 37131 ft | 434 kts | 127° |
| 2026-04-24 10:48 | 45.91786 | 10.99300 | 37119 ft | 435 kts | 127° |
| 2026-04-24 10:48 | 45.87833 | 11.05882 | 37113 ft | 435 kts | 127° |
| 2026-04-24 10:49 | 45.83899 | 11.12418 | 37112 ft | 436 kts | 127° |
| 2026-04-24 10:49 | 45.79914 | 11.19023 | 37125 ft | 435 kts | 127° |
| 2026-04-24 10:50 | 45.75974 | 11.25539 | 37102 ft | 435 kts | 127° |
| 2026-04-24 10:50 | 45.72011 | 11.32076 | 37115 ft | 434 kts | 127° |
| 2026-04-24 10:51 | 45.68048 | 11.38597 | 37111 ft | 434 kts | 127° |
| 2026-04-24 10:51 | 45.64084 | 11.45107 | 37102 ft | 433 kts | 127° |
| 2026-04-24 10:52 | 45.60126 | 11.51590 | 37109 ft | 433 kts | 127° |
| 2026-04-24 10:52 | 45.56168 | 11.58058 | 37122 ft | 432 kts | 127° |
| 2026-04-24 10:53 | 45.52209 | 11.64514 | 37117 ft | 432 kts | 127° |
| 2026-04-24 10:53 | 45.48248 | 11.70958 | 37129 ft | 432 kts | 127° |
| 2026-04-24 10:54 | 45.44286 | 11.77388 | 37132 ft | 433 kts | 127° |
| 2026-04-24 10:54 | 45.40306 | 11.83833 | 37137 ft | 434 kts | 127° |
| 2026-04-24 10:55 | 45.36317 | 11.90279 | 37134 ft | 435 kts | 127° |
| 2026-04-24 10:55 | 45.32304 | 11.96747 | 37137 ft | 437 kts | 127° |
| 2026-04-24 10:56 | 45.28277 | 12.03223 | 37125 ft | 438 kts | 127° |
| 2026-04-24 10:56 | 45.24230 | 12.09715 | 37122 ft | 440 kts | 127° |
| 2026-04-24 10:57 | 45.20168 | 12.16215 | 37113 ft | 440 kts | 127° |
| 2026-04-24 10:57 | 45.16101 | 12.22707 | 37108 ft | 441 kts | 127° |
| 2026-04-24 10:58 | 45.12027 | 12.29197 | 37110 ft | 441 kts | 127° |
| 2026-04-24 10:58 | 45.07981 | 12.35627 | 37130 ft | 440 kts | 127° |
| 2026-04-24 10:59 | 45.03883 | 12.42125 | 37120 ft | 439 kts | 127° |
| 2026-04-24 10:59 | 44.99842 | 12.48517 | 37116 ft | 438 kts | 127° |
| 2026-04-24 11:00 | 44.95780 | 12.54928 | 37123 ft | 437 kts | 127° |
| 2026-04-24 11:00 | 44.91724 | 12.61315 | 37125 ft | 436 kts | 127° |
| 2026-04-24 11:01 | 44.87671 | 12.67683 | 37142 ft | 436 kts | 127° |
| 2026-04-24 11:01 | 44.83613 | 12.74045 | 37136 ft | 436 kts | 127° |
| 2026-04-24 11:02 | 44.79558 | 12.80387 | 37129 ft | 436 kts | 127° |
| 2026-04-24 11:02 | 44.75498 | 12.86722 | 37140 ft | 436 kts | 127° |
| 2026-04-24 11:03 | 44.71438 | 12.93044 | 37129 ft | 436 kts | 127° |
| 2026-04-24 11:03 | 44.67367 | 12.99369 | 37147 ft | 436 kts | 127° |
| 2026-04-24 11:04 | 44.63293 | 13.05684 | 37153 ft | 437 kts | 127° |
| 2026-04-24 11:04 | 44.59192 | 13.12025 | 37141 ft | 438 kts | 127° |
| 2026-04-24 11:05 | 44.55787 | 13.17281 | 37139 ft | 438 kts | 127° |
| 2026-04-24 11:05 | 44.51681 | 13.23603 | 37139 ft | 439 kts | 127° |
| 2026-04-24 11:06 | 44.47565 | 13.29928 | 37144 ft | 439 kts | 127° |
| 2026-04-24 11:06 | 44.43443 | 13.36247 | 37132 ft | 440 kts | 127° |
| 2026-04-24 11:07 | 44.37247 | 13.45720 | 37132 ft | 440 kts | 128° |
| 2026-04-24 11:07 | 44.33114 | 13.52022 | 37133 ft | 440 kts | 128° |
| 2026-04-24 11:08 | 44.28982 | 13.58307 | 37149 ft | 440 kts | 128° |
| 2026-04-24 11:08 | 44.24844 | 13.64592 | 37141 ft | 439 kts | 128° |
| 2026-04-24 11:09 | 44.20733 | 13.70875 | 37139 ft | 438 kts | 126° |
| 2026-04-24 11:09 | 44.16792 | 13.77346 | 37142 ft | 437 kts | 125° |
| 2026-04-24 11:10 | 44.12907 | 13.83835 | 37146 ft | 437 kts | 125° |
| 2026-04-24 11:10 | 44.08996 | 13.90312 | 37149 ft | 437 kts | 125° |
| 2026-04-24 11:11 | 44.05096 | 13.96717 | 37146 ft | 437 kts | 126° |
| 2026-04-24 11:11 | 44.01162 | 14.03150 | 37147 ft | 436 kts | 126° |
| 2026-04-24 11:12 | 43.97225 | 14.09568 | 37150 ft | 436 kts | 126° |
| 2026-04-24 11:12 | 43.93291 | 14.15970 | 37150 ft | 436 kts | 126° |
| 2026-04-24 11:13 | 43.89351 | 14.22368 | 37172 ft | 436 kts | 126° |
| 2026-04-24 11:13 | 43.85409 | 14.28756 | 37156 ft | 436 kts | 126° |
| 2026-04-24 11:14 | 43.81455 | 14.35147 | 37148 ft | 436 kts | 126° |
| 2026-04-24 11:14 | 43.77503 | 14.41522 | 37148 ft | 436 kts | 126° |
| 2026-04-24 11:15 | 43.73548 | 14.47888 | 37147 ft | 436 kts | 126° |
| 2026-04-24 11:15 | 43.69586 | 14.54250 | 37148 ft | 436 kts | 126° |
| 2026-04-24 11:16 | 43.65623 | 14.60601 | 37148 ft | 437 kts | 126° |
| 2026-04-24 11:16 | 43.61654 | 14.66947 | 37144 ft | 437 kts | 126° |
| 2026-04-24 11:17 | 43.57675 | 14.73294 | 37147 ft | 437 kts | 126° |
| 2026-04-24 11:17 | 43.53692 | 14.79635 | 37148 ft | 437 kts | 126° |
| 2026-04-24 11:18 | 43.49704 | 14.85968 | 37147 ft | 438 kts | 126° |
| 2026-04-24 11:18 | 43.45713 | 14.92294 | 37161 ft | 438 kts | 126° |
| 2026-04-24 11:19 | 43.41712 | 14.98621 | 37150 ft | 439 kts | 127° |
| 2026-04-24 11:19 | 43.37703 | 15.04948 | 37145 ft | 439 kts | 127° |
| 2026-04-24 11:20 | 43.33684 | 15.11274 | 37139 ft | 439 kts | 127° |
| 2026-04-24 11:20 | 43.29689 | 15.17551 | 37140 ft | 440 kts | 127° |
| 2026-04-24 11:21 | 43.25660 | 15.23865 | 37126 ft | 440 kts | 127° |
| 2026-04-24 11:21 | 43.21630 | 15.30170 | 37156 ft | 440 kts | 127° |
| 2026-04-24 11:22 | 43.17587 | 15.36479 | 37137 ft | 440 kts | 127° |
| 2026-04-24 11:22 | 43.13543 | 15.42777 | 37130 ft | 440 kts | 127° |
| 2026-04-24 11:23 | 43.09497 | 15.49064 | 37133 ft | 440 kts | 127° |
| 2026-04-24 11:23 | 43.05447 | 15.55344 | 37134 ft | 440 kts | 127° |
| 2026-04-24 11:24 | 43.01388 | 15.61624 | 37134 ft | 440 kts | 127° |
| 2026-04-24 11:24 | 42.97330 | 15.67890 | 37139 ft | 440 kts | 127° |
| 2026-04-24 11:25 | 42.93266 | 15.74151 | 37144 ft | 441 kts | 127° |
| 2026-04-24 11:25 | 42.89196 | 15.80407 | 37126 ft | 441 kts | 127° |
| 2026-04-24 11:26 | 42.85123 | 15.86655 | 37128 ft | 441 kts | 127° |
| 2026-04-24 11:26 | 42.81046 | 15.92895 | 37125 ft | 441 kts | 127° |
| 2026-04-24 11:27 | 42.76971 | 15.99119 | 37122 ft | 441 kts | 127° |
| 2026-04-24 11:27 | 42.72886 | 16.05346 | 37125 ft | 441 kts | 128° |
| 2026-04-24 11:28 | 42.68795 | 16.11567 | 37119 ft | 441 kts | 128° |
| 2026-04-24 11:28 | 42.64726 | 16.17742 | 37117 ft | 441 kts | 128° |
| 2026-04-24 11:29 | 42.60603 | 16.23985 | 37118 ft | 442 kts | 128° |
| 2026-04-24 11:29 | 42.56525 | 16.30147 | 37117 ft | 442 kts | 128° |
| 2026-04-24 11:30 | 42.52413 | 16.36347 | 37134 ft | 442 kts | 128° |
| 2026-04-24 11:30 | 42.48295 | 16.42545 | 37118 ft | 443 kts | 128° |
| 2026-04-24 11:31 | 42.44142 | 16.48780 | 37113 ft | 443 kts | 128° |
| 2026-04-24 11:31 | 42.40044 | 16.54920 | 37108 ft | 443 kts | 128° |
| 2026-04-24 11:32 | 42.35907 | 16.61106 | 37114 ft | 443 kts | 128° |
| 2026-04-24 11:32 | 42.31763 | 16.67289 | 37106 ft | 444 kts | 128° |
| 2026-04-24 11:33 | 42.27618 | 16.73460 | 37116 ft | 444 kts | 128° |
| 2026-04-24 11:33 | 42.23461 | 16.79637 | 37109 ft | 445 kts | 128° |
| 2026-04-24 11:34 | 42.19297 | 16.85810 | 37102 ft | 445 kts | 128° |
| 2026-04-24 11:34 | 42.15129 | 16.91976 | 37102 ft | 445 kts | 128° |
| 2026-04-24 11:35 | 42.10956 | 16.98137 | 37104 ft | 445 kts | 128° |
| 2026-04-24 11:35 | 42.06780 | 17.04290 | 37101 ft | 445 kts | 129° |
| 2026-04-24 11:36 | 42.02599 | 17.10438 | 37102 ft | 445 kts | 128° |
| 2026-04-24 11:36 | 41.98414 | 17.16580 | 37102 ft | 445 kts | 128° |
| 2026-04-24 11:37 | 41.94231 | 17.22705 | 37096 ft | 445 kts | 128° |
| 2026-04-24 11:37 | 41.90197 | 17.28984 | 37090 ft | 443 kts | 125° |
| 2026-04-24 11:38 | 41.86387 | 17.35472 | 37099 ft | 442 kts | 124° |
| 2026-04-24 11:38 | 41.82615 | 17.41923 | 37106 ft | 442 kts | 124° |
| 2026-04-24 11:39 | 41.78795 | 17.48386 | 37099 ft | 443 kts | 124° |
| 2026-04-24 11:39 | 41.74954 | 17.54836 | 37088 ft | 443 kts | 125° |
| 2026-04-24 11:40 | 41.71105 | 17.61273 | 37094 ft | 443 kts | 125° |
| 2026-04-24 11:40 | 41.67257 | 17.67698 | 37091 ft | 443 kts | 125° |
| 2026-04-24 11:41 | 41.63404 | 17.74117 | 37096 ft | 442 kts | 125° |
| 2026-04-24 11:41 | 41.59546 | 17.80533 | 37098 ft | 443 kts | 125° |
| 2026-04-24 11:42 | 41.55682 | 17.86945 | 37088 ft | 443 kts | 125° |
| 2026-04-24 11:42 | 41.51813 | 17.93350 | 37085 ft | 443 kts | 125° |
| 2026-04-24 11:43 | 41.47940 | 17.99749 | 37085 ft | 443 kts | 125° |
| 2026-04-24 11:43 | 41.44064 | 18.06141 | 37083 ft | 443 kts | 125° |
| 2026-04-24 11:44 | 41.40187 | 18.12520 | 37088 ft | 443 kts | 125° |
| 2026-04-24 11:44 | 41.36301 | 18.18899 | 37082 ft | 443 kts | 125° |
| 2026-04-24 11:45 | 41.32412 | 18.25271 | 37082 ft | 443 kts | 126° |
| 2026-04-24 11:45 | 41.28519 | 18.31638 | 37083 ft | 444 kts | 126° |
| 2026-04-24 11:46 | 41.24621 | 18.37997 | 37085 ft | 444 kts | 126° |
| 2026-04-24 11:46 | 41.20719 | 18.44350 | 37099 ft | 444 kts | 126° |
| 2026-04-24 11:47 | 41.16811 | 18.50700 | 37084 ft | 444 kts | 126° |
| 2026-04-24 11:47 | 41.12901 | 18.57041 | 37081 ft | 444 kts | 126° |
| 2026-04-24 11:48 | 41.08985 | 18.63377 | 37080 ft | 444 kts | 126° |
| 2026-04-24 11:48 | 41.05070 | 18.69699 | 37076 ft | 444 kts | 126° |
| 2026-04-24 11:49 | 41.01149 | 18.76018 | 37081 ft | 444 kts | 126° |
| 2026-04-24 11:49 | 40.97223 | 18.82332 | 37087 ft | 444 kts | 126° |
| 2026-04-24 11:50 | 40.93294 | 18.88640 | 37074 ft | 445 kts | 126° |
| 2026-04-24 11:50 | 40.89361 | 18.94951 | 37073 ft | 444 kts | 125° |
| 2026-04-24 11:51 | 40.85888 | 19.01654 | 37077 ft | 441 kts | 119° |
| 2026-04-24 11:51 | 40.82649 | 19.08477 | 37074 ft | 441 kts | 118° |
| 2026-04-24 11:52 | 40.79905 | 19.14222 | 37076 ft | 442 kts | 119° |
| 2026-04-24 11:52 | 40.76055 | 19.22151 | 37063 ft | 442 kts | 120° |
| 2026-04-24 11:53 | 40.72717 | 19.28965 | 37056 ft | 442 kts | 120° |
| 2026-04-24 11:53 | 40.69912 | 19.34670 | 37054 ft | 443 kts | 120° |
| 2026-04-24 11:54 | 40.66562 | 19.41474 | 37043 ft | 443 kts | 120° |
| 2026-04-24 11:54 | 40.63205 | 19.48280 | 37057 ft | 443 kts | 120° |
| 2026-04-24 11:55 | 40.59845 | 19.55077 | 37030 ft | 444 kts | 120° |
| 2026-04-24 11:55 | 40.56476 | 19.61878 | 37034 ft | 444 kts | 120° |
| 2026-04-24 11:56 | 40.53122 | 19.68633 | 37014 ft | 444 kts | 120° |
| 2026-04-24 11:56 | 40.49746 | 19.75418 | 37018 ft | 444 kts | 120° |
| 2026-04-24 11:57 | 40.46363 | 19.82201 | 37024 ft | 444 kts | 120° |
| 2026-04-24 11:57 | 40.42977 | 19.88978 | 37006 ft | 444 kts | 120° |
| 2026-04-24 11:58 | 40.39585 | 19.95749 | 37004 ft | 444 kts | 120° |
| 2026-04-24 11:58 | 40.36190 | 20.02514 | 36999 ft | 444 kts | 120° |
| 2026-04-24 11:59 | 40.32795 | 20.09263 | 37003 ft | 443 kts | 120° |
| 2026-04-24 11:59 | 40.29407 | 20.15983 | 37001 ft | 443 kts | 121° |
| 2026-04-24 12:00 | 40.26009 | 20.22713 | 36995 ft | 443 kts | 120° |
| 2026-04-24 12:00 | 40.22596 | 20.29454 | 36998 ft | 445 kts | 121° |
| 2026-04-24 12:01 | 40.19171 | 20.36206 | 36992 ft | 446 kts | 121° |
| 2026-04-24 12:01 | 40.15736 | 20.42963 | 36987 ft | 447 kts | 121° |
| 2026-04-24 12:02 | 40.12290 | 20.49730 | 36994 ft | 447 kts | 121° |
| 2026-04-24 12:02 | 40.08745 | 20.56414 | 36972 ft | 450 kts | 128° |
| 2026-04-24 12:03 | 40.06506 | 20.59281 | 36996 ft | 453 kts | 139° |
| 2026-04-24 12:03 | 40.03922 | 20.61648 | 36981 ft | 456 kts | 148° |
| 2026-04-24 12:03 | 39.98182 | 20.65186 | 36983 ft | 457 kts | 154° |
| 2026-04-24 12:04 | 39.92427 | 20.68561 | 36981 ft | 456 kts | 153° |
| 2026-04-24 12:04 | 39.86668 | 20.72020 | 36979 ft | 456 kts | 153° |
| 2026-04-24 12:05 | 39.80929 | 20.75500 | 37000 ft | 455 kts | 153° |
| 2026-04-24 12:05 | 39.75193 | 20.78968 | 36988 ft | 453 kts | 153° |
| 2026-04-24 12:06 | 39.72441 | 20.80906 | 36986 ft | 449 kts | 140° |
| 2026-04-24 12:06 | 39.70243 | 20.83731 | 37014 ft | 442 kts | 123° |
| 2026-04-24 12:06 | 39.68701 | 20.87141 | 36855 ft | 439 kts | 108° |
| 2026-04-24 12:06 | 39.67770 | 20.90896 | 36583 ft | 433 kts | 103° |
| 2026-04-24 12:07 | 39.66930 | 20.94627 | 36151 ft | 429 kts | 103° |
| 2026-04-24 12:07 | 39.66100 | 20.98318 | 35801 ft | 424 kts | 103° |
| 2026-04-24 12:07 | 39.65269 | 21.01973 | 35391 ft | 421 kts | 103° |
| 2026-04-24 12:07 | 39.64433 | 21.05591 | 35008 ft | 418 kts | 103° |
| 2026-04-24 12:08 | 39.63593 | 21.09182 | 34610 ft | 414 kts | 103° |
| 2026-04-24 12:08 | 39.62753 | 21.12739 | 34245 ft | 411 kts | 103° |
| 2026-04-24 12:08 | 39.61915 | 21.16268 | 33842 ft | 408 kts | 103° |
| 2026-04-24 12:08 | 39.61079 | 21.19777 | 33403 ft | 406 kts | 103° |
| 2026-04-24 12:09 | 39.60247 | 21.23262 | 32999 ft | 403 kts | 103° |
| 2026-04-24 12:09 | 39.59422 | 21.26714 | 32611 ft | 400 kts | 103° |
| 2026-04-24 12:09 | 39.58597 | 21.30156 | 32221 ft | 397 kts | 103° |
| 2026-04-24 12:09 | 39.57792 | 21.33516 | 31856 ft | 394 kts | 103° |
| 2026-04-24 12:10 | 39.56971 | 21.36936 | 31483 ft | 391 kts | 103° |
| 2026-04-24 12:10 | 39.56164 | 21.40291 | 31110 ft | 389 kts | 102° |
| 2026-04-24 12:10 | 39.55362 | 21.43620 | 30746 ft | 386 kts | 102° |
| 2026-04-24 12:11 | 39.53782 | 21.50173 | 30026 ft | 381 kts | 102° |
| 2026-04-24 12:11 | 39.52994 | 21.53436 | 29610 ft | 379 kts | 102° |
| 2026-04-24 12:11 | 39.52207 | 21.56685 | 29201 ft | 377 kts | 103° |
| 2026-04-24 12:11 | 39.51426 | 21.59910 | 28824 ft | 373 kts | 103° |
| 2026-04-24 12:12 | 39.50651 | 21.63100 | 28446 ft | 370 kts | 103° |
| 2026-04-24 12:12 | 39.49881 | 21.66268 | 28066 ft | 367 kts | 103° |
| 2026-04-24 12:12 | 39.49116 | 21.69411 | 27692 ft | 365 kts | 103° |
| 2026-04-24 12:12 | 39.48356 | 21.72530 | 27325 ft | 362 kts | 103° |
| 2026-04-24 12:13 | 39.47601 | 21.75625 | 26961 ft | 359 kts | 103° |
| 2026-04-24 12:13 | 39.46850 | 21.78699 | 26600 ft | 357 kts | 103° |
| 2026-04-24 12:13 | 39.46104 | 21.81752 | 26260 ft | 355 kts | 103° |
| 2026-04-24 12:13 | 39.45361 | 21.84786 | 25886 ft | 353 kts | 103° |
| 2026-04-24 12:14 | 39.44621 | 21.87801 | 25546 ft | 350 kts | 103° |
| 2026-04-24 12:14 | 39.43887 | 21.90792 | 25186 ft | 349 kts | 104° |
| 2026-04-24 12:14 | 39.43154 | 21.93772 | 24832 ft | 347 kts | 104° |
| 2026-04-24 12:14 | 39.42425 | 21.96738 | 24450 ft | 346 kts | 104° |
| 2026-04-24 12:15 | 39.41693 | 21.99710 | 23982 ft | 348 kts | 104° |
| 2026-04-24 12:15 | 39.40957 | 22.02694 | 23602 ft | 348 kts | 104° |
| 2026-04-24 12:15 | 39.40224 | 22.05661 | 23227 ft | 345 kts | 104° |
| 2026-04-24 12:15 | 39.39496 | 22.08602 | 22869 ft | 342 kts | 104° |
| 2026-04-24 12:16 | 39.38773 | 22.11518 | 22492 ft | 339 kts | 104° |
| 2026-04-24 12:16 | 39.38054 | 22.14415 | 22131 ft | 337 kts | 104° |
| 2026-04-24 12:16 | 39.37340 | 22.17293 | 21766 ft | 335 kts | 104° |
| 2026-04-24 12:16 | 39.36618 | 22.20202 | 20823 ft | 349 kts | 104° |
| 2026-04-24 12:17 | 39.35864 | 22.23243 | 20270 ft | 353 kts | 104° |
| 2026-04-24 12:17 | 39.35103 | 22.26296 | 19877 ft | 368 kts | 104° |
| 2026-04-24 12:17 | 39.34297 | 22.29540 | 19504 ft | 387 kts | 105° |
| 2026-04-24 12:17 | 39.33468 | 22.32854 | 19089 ft | 388 kts | 105° |
| 2026-04-24 12:18 | 39.32637 | 22.36165 | 18680 ft | 386 kts | 105° |
| 2026-04-24 12:18 | 39.31813 | 22.39446 | 18266 ft | 383 kts | 105° |
| 2026-04-24 12:18 | 39.31005 | 22.42655 | 17823 ft | 380 kts | 105° |
| 2026-04-24 12:18 | 39.30187 | 22.45884 | 17409 ft | 377 kts | 105° |
| 2026-04-24 12:19 | 39.29372 | 22.49086 | 17000 ft | 374 kts | 105° |
| 2026-04-24 12:19 | 39.28563 | 22.52262 | 16606 ft | 371 kts | 105° |
| 2026-04-24 12:19 | 39.27762 | 22.55406 | 16225 ft | 368 kts | 105° |
| 2026-04-24 12:19 | 39.26964 | 22.58540 | 15845 ft | 366 kts | 105° |
| 2026-04-24 12:20 | 39.26171 | 22.61647 | 15461 ft | 364 kts | 105° |
| 2026-04-24 12:20 | 39.25380 | 22.64746 | 15086 ft | 363 kts | 105° |
| 2026-04-24 12:20 | 39.24592 | 22.67827 | 14696 ft | 361 kts | 105° |
| 2026-04-24 12:20 | 39.23808 | 22.70893 | 14336 ft | 360 kts | 105° |
| 2026-04-24 12:21 | 39.23024 | 22.73953 | 13959 ft | 358 kts | 106° |
| 2026-04-24 12:21 | 39.22243 | 22.76994 | 13558 ft | 355 kts | 106° |
| 2026-04-24 12:21 | 39.21548 | 22.80015 | 13162 ft | 347 kts | 98° |
| 2026-04-24 12:21 | 39.21328 | 22.83061 | 12897 ft | 335 kts | 91° |
| 2026-04-24 12:22 | 39.21232 | 22.86021 | 12626 ft | 327 kts | 90° |
| 2026-04-24 12:22 | 39.21149 | 22.88918 | 12362 ft | 319 kts | 90° |
| 2026-04-24 12:22 | 39.21062 | 22.91752 | 12039 ft | 314 kts | 90° |
| 2026-04-24 12:22 | 39.20968 | 22.94548 | 11699 ft | 311 kts | 91° |
| 2026-04-24 12:23 | 39.20867 | 22.97321 | 11351 ft | 308 kts | 91° |
| 2026-04-24 12:23 | 39.20763 | 23.00067 | 11015 ft | 305 kts | 91° |
| 2026-04-24 12:23 | 39.20655 | 23.02788 | 10671 ft | 303 kts | 91° |
| 2026-04-24 12:23 | 39.20546 | 23.05498 | 10310 ft | 302 kts | 91° |
| 2026-04-24 12:24 | 39.20436 | 23.08162 | 10129 ft | 295 kts | 91° |
| 2026-04-24 12:24 | 39.20327 | 23.10785 | 9895 ft | 290 kts | 91° |
| 2026-04-24 12:24 | 39.20219 | 23.13377 | 9559 ft | 289 kts | 91° |
| 2026-04-24 12:24 | 39.20110 | 23.15958 | 9230 ft | 287 kts | 91° |
| 2026-04-24 12:25 | 39.20002 | 23.18514 | 8909 ft | 285 kts | 91° |
| 2026-04-24 12:25 | 39.19894 | 23.21060 | 8588 ft | 284 kts | 91° |
| 2026-04-24 12:25 | 39.19785 | 23.23597 | 8275 ft | 283 kts | 91° |
| 2026-04-24 12:25 | 39.19676 | 23.26129 | 7950 ft | 282 kts | 91° |
| 2026-04-24 12:26 | 39.19567 | 23.28644 | 7638 ft | 281 kts | 91° |
| 2026-04-24 12:26 | 39.19458 | 23.31158 | 7328 ft | 280 kts | 91° |
| 2026-04-24 12:26 | 39.19348 | 23.33666 | 7010 ft | 280 kts | 91° |
| 2026-04-24 12:26 | 39.19240 | 23.36165 | 6710 ft | 279 kts | 92° |
| 2026-04-24 12:27 | 39.19130 | 23.38655 | 6414 ft | 278 kts | 92° |
| 2026-04-24 12:27 | 39.19019 | 23.41133 | 6103 ft | 276 kts | 92° |
| 2026-04-24 12:27 | 39.18909 | 23.43596 | 5814 ft | 275 kts | 91° |
| 2026-04-24 12:27 | 39.18796 | 23.46052 | 5531 ft | 274 kts | 92° |
| 2026-04-24 12:28 | 39.18683 | 23.48473 | 5228 ft | 274 kts | 91° |
| 2026-04-24 12:28 | 39.18568 | 23.50942 | 4960 ft | 270 kts | 92° |
| 2026-04-24 12:28 | 39.18455 | 23.53330 | 4645 ft | 264 kts | 92° |
| 2026-04-24 12:28 | 39.18284 | 23.55646 | 4356 ft | 258 kts | 103° |
| 2026-04-24 12:29 | 39.17412 | 23.57604 | 4119 ft | 250 kts | 136° |
| 2026-04-24 12:29 | 39.15956 | 23.58683 | 4015 ft | 236 kts | 168° |
| 2026-04-24 12:29 | 39.14353 | 23.58810 | 4011 ft | 229 kts | 190° |
| 2026-04-24 12:29 | 39.12850 | 23.58197 | 3936 ft | 228 kts | 207° |
| 2026-04-24 12:30 | 39.11427 | 23.57299 | 3769 ft | 227 kts | 210° |
| 2026-04-24 12:30 | 39.10024 | 23.56369 | 3578 ft | 227 kts | 209° |
| 2026-04-24 12:30 | 39.08615 | 23.55434 | 3420 ft | 228 kts | 208° |
| 2026-04-24 12:30 | 39.07224 | 23.54518 | 3240 ft | 226 kts | 208° |
| 2026-04-24 12:31 | 39.05828 | 23.53606 | 3056 ft | 216 kts | 208° |
| 2026-04-24 12:31 | 39.04530 | 23.52759 | 2881 ft | 202 kts | 208° |
| 2026-04-24 12:31 | 39.03304 | 23.51960 | 2766 ft | 195 kts | 209° |
| 2026-04-24 12:31 | 39.02309 | 23.50887 | 2595 ft | 189 kts | 242° |
| 2026-04-24 12:32 | 39.02018 | 23.49297 | 2492 ft | 184 kts | 277° |
| 2026-04-24 12:32 | 39.02445 | 23.47781 | 2366 ft | 181 kts | 309° |
| 2026-04-24 12:32 | 39.03408 | 23.46817 | 2223 ft | 171 kts | 340° |
| 2026-04-24 12:32 | 39.04517 | 23.46608 | 2119 ft | 155 kts | 7° |
| 2026-04-24 12:33 | 39.05587 | 23.46894 | 2022 ft | 161 kts | 11° |
| 2026-04-24 12:33 | 39.06685 | 23.47183 | 1892 ft | 161 kts | 11° |
| 2026-04-24 12:33 | 39.07780 | 23.47479 | 1763 ft | 163 kts | 11° |
| 2026-04-24 12:33 | 39.08897 | 23.47784 | 1646 ft | 161 kts | 11° |
| 2026-04-24 12:34 | 39.09945 | 23.48072 | 1608 ft | 147 kts | 12° |
| 2026-04-24 12:34 | 39.10923 | 23.48346 | 1591 ft | 141 kts | 12° |
| 2026-04-24 12:34 | 39.11893 | 23.48620 | 1604 ft | 144 kts | 12° |
| 2026-04-24 12:34 | 39.12853 | 23.48872 | 1355 ft | 138 kts | 9° |
| 2026-04-24 12:35 | 39.13818 | 23.49047 | 883 ft | 142 kts | 5° |
| 2026-04-24 12:35 | 39.14793 | 23.49172 | 490 ft | 139 kts | 8° |
| 2026-04-24 12:35 | 39.15740 | 23.49459 | 291 ft | 138 kts | 16° |
| 2026-04-24 12:35 | 39.16645 | 23.49906 | 99 ft | 140 kts | 17° |
| 2026-04-24 12:36 | 39.17525 | 23.50305 | 157 ft | 140 kts | 17° |
| 2026-04-24 12:36 | 39.18495 | 23.50773 | 834 ft | 161 kts | 19° |
| 2026-04-24 12:36 | 39.19607 | 23.51293 | 1617 ft | 184 kts | 18° |
| 2026-04-24 12:36 | 39.20894 | 23.51934 | 2333 ft | 207 kts | 19° |
| 2026-04-24 12:37 | 39.22212 | 23.52575 | 3522 ft | 200 kts | 18° |
| 2026-04-24 12:37 | 39.23492 | 23.53214 | 4626 ft | 203 kts | 22° |
| 2026-04-24 12:37 | 39.24620 | 23.54478 | 5268 ft | 232 kts | 58° |
| 2026-04-24 12:37 | 39.25077 | 23.56549 | 6097 ft | 252 kts | 86° |
| 2026-04-24 12:38 | 39.25001 | 23.58833 | 6998 ft | 250 kts | 92° |
| 2026-04-24 12:38 | 39.24846 | 23.60935 | 7720 ft | 223 kts | 93° |
| 2026-04-24 12:38 | 39.24684 | 23.62865 | 8293 ft | 211 kts | 93° |
| 2026-04-24 12:39 | 39.22130 | 23.67478 | 7722 ft | 248 kts | 170° |
| 2026-04-24 12:39 | 39.20436 | 23.67356 | 7507 ft | 243 kts | 195° |
| 2026-04-24 12:39 | 39.18818 | 23.66746 | 7234 ft | 244 kts | 199° |
| 2026-04-24 12:40 | 39.17204 | 23.66096 | 7048 ft | 240 kts | 199° |
| 2026-04-24 12:40 | 39.15615 | 23.65447 | 6842 ft | 238 kts | 199° |
| 2026-04-24 12:40 | 39.14045 | 23.64801 | 6625 ft | 236 kts | 199° |
| 2026-04-24 12:40 | 39.13014 | 23.64376 | 6485 ft | 236 kts | 199° |
| 2026-04-24 12:41 | 39.11432 | 23.63735 | 6166 ft | 238 kts | 199° |
| 2026-04-24 12:41 | 39.09855 | 23.63104 | 5941 ft | 236 kts | 199° |
| 2026-04-24 12:41 | 39.08297 | 23.62475 | 5717 ft | 234 kts | 198° |
| 2026-04-24 12:41 | 39.06754 | 23.61830 | 5461 ft | 234 kts | 199° |
| 2026-04-24 12:42 | 39.05202 | 23.61176 | 5224 ft | 234 kts | 199° |
| 2026-04-24 12:42 | 39.03663 | 23.60527 | 5022 ft | 231 kts | 199° |
| 2026-04-24 12:42 | 39.02140 | 23.59883 | 4810 ft | 230 kts | 199° |
| 2026-04-24 12:42 | 39.00627 | 23.59240 | 4549 ft | 230 kts | 199° |
| 2026-04-24 12:43 | 38.99100 | 23.58594 | 4270 ft | 231 kts | 199° |
| 2026-04-24 12:43 | 38.97593 | 23.57951 | 4120 ft | 228 kts | 199° |
| 2026-04-24 12:43 | 38.96088 | 23.57250 | 4022 ft | 231 kts | 209° |
| 2026-04-24 12:43 | 38.94964 | 23.55888 | 3991 ft | 218 kts | 244° |
| 2026-04-24 12:44 | 38.94640 | 23.54099 | 3998 ft | 198 kts | 272° |
| 2026-04-24 12:44 | 38.94677 | 23.52398 | 3975 ft | 183 kts | 275° |
| 2026-04-24 12:44 | 38.94738 | 23.50789 | 3997 ft | 181 kts | 275° |
| 2026-04-24 12:44 | 38.94806 | 23.49141 | 4012 ft | 187 kts | 275° |
| 2026-04-24 12:45 | 38.94872 | 23.47460 | 4020 ft | 190 kts | 275° |
| 2026-04-24 12:45 | 38.94940 | 23.45757 | 4010 ft | 191 kts | 275° |
| 2026-04-24 12:45 | 38.95090 | 23.44072 | 3861 ft | 192 kts | 290° |
| 2026-04-24 12:45 | 38.95773 | 23.42571 | 3307 ft | 200 kts | 316° |
| 2026-04-24 12:46 | 38.96881 | 23.41486 | 2878 ft | 199 kts | 335° |
| 2026-04-24 12:46 | 38.98125 | 23.40935 | 2799 ft | 182 kts | 350° |
| 2026-04-24 12:46 | 38.99373 | 23.40706 | 2453 ft | 182 kts | 355° |
| 2026-04-24 12:46 | 39.00621 | 23.40602 | 2247 ft | 174 kts | 4° |
| 2026-04-24 12:47 | 39.01764 | 23.40805 | 2374 ft | 165 kts | 12° |
| 2026-04-24 12:47 | 39.02962 | 23.41105 | 2389 ft | 183 kts | 11° |
| 2026-04-24 12:47 | 39.04282 | 23.41451 | 2367 ft | 201 kts | 11° |
| 2026-04-24 12:47 | 39.05686 | 23.41649 | 2006 ft | 209 kts | 4° |
| 2026-04-24 12:48 | 39.07145 | 23.41690 | 1537 ft | 208 kts | 1° |
| 2026-04-24 12:48 | 39.08561 | 23.41732 | 1178 ft | 203 kts | 2° |
| 2026-04-24 12:48 | 39.09833 | 23.42241 | 1153 ft | 188 kts | 35° |
| 2026-04-24 12:48 | 39.10709 | 23.43496 | 1178 ft | 194 kts | 59° |
| 2026-04-24 12:49 | 39.11269 | 23.45121 | 1048 ft | 202 kts | 68° |
| 2026-04-24 12:49 | 39.11712 | 23.46836 | 984 ft | 198 kts | 66° |
| 2026-04-24 12:49 | 39.12394 | 23.48339 | 985 ft | 195 kts | 34° |
| 2026-04-24 12:49 | 39.13610 | 23.49080 | 746 ft | 200 kts | 8° |
| 2026-04-24 12:50 | 39.14995 | 23.49360 | 412 ft | 200 kts | 7° |
| 2026-04-24 12:50 | 39.16335 | 23.49732 | 168 ft | 195 kts | 18° |
| 2026-04-24 12:50 | 39.17602 | 23.50318 | 40 ft | 181 kts | 18° |
| 2026-04-24 12:50 | 39.18410 | 23.50676 | 59 ft | 72 kts | 19° |
| 2026-04-24 12:51 | 39.18618 | 23.50789 | 13 ft | 0 kts | 326° |
| 2026-04-24 12:51 | 39.18618 | 23.50790 | 13 ft | 0 kts | 326° |
| 2026-04-24 12:53 | 39.17988 | 23.50277 | 39 ft | 0 kts | 289° |
| 2026-04-24 12:59 | 39.17988 | 23.50276 | 39 ft | 0 kts | 289° |
| 2026-04-24 13:07 | 39.17988 | 23.50277 | 39 ft | 0 kts | 289° |
| 2026-04-24 13:08 | 39.17909 | 23.50241 | 39 ft | 0 kts | 289° |
| 2026-04-24 13:09 | 39.17909 | 23.50242 | 39 ft | 0 kts | 289° |